Terminal Aerodrome Forecast
Issued by NWS

Home | Current Version | Previous Version | Text Only | Print | Product List | Glossary On
Versions: 1 2 3 4 5 6 7 8 9 10 11 12 13 14 15 16 17
000
FTUS43 KIND 250500
TAFLAF
TAF
KLAF 250525Z 2506/2606 14008KT 6SM -SHRA OVC050
     FM250700 19007KT 5SM -SHRA OVC035
     FM251200 28015G22KT P6SM SCT040
     FM251500 30015G22KT P6SM FEW050
     FM252300 27008KT P6SM SCT120
     FM260100 24004KT P6SM BKN080
      AMD LTD TO CLD VIS AND WIND TIL 251300=

USA.gov is the U.S. government's official web portal to all federal, state and local government web resources and services.